METAR Data
IDs: Format: Raw Decoded Include TAF

Data at: 0515 UTC 24 Sep 2018

KFCI 240456Z AUTO 35005KT 4SM -RA BR OVC005 18/17 A3021 RMK AO2 RAB09 SLP247 P0000 T01780172
KFCI 240356Z AUTO 36005KT 5SM BR OVC005 18/17 A3021 RMK AO2 RAE50 SLP247 P0000 T01780172 402060161
KFCI 240256Z AUTO 35004KT 4SM -RA BR OVC005 18/17 A3021 RMK AO2 SLP246 P0001 60001 T01780172 51014
KFCI 240156Z AUTO 02005KT 5SM -RA BR OVC005 18/17 A3020 RMK AO2 RAB17 SLP242 P0000 T01780172
KFCI 240056Z AUTO 02006KT 4SM BR OVC005 18/17 A3018 RMK AO2 SLP237 T01780172
KFCI 232356Z AUTO 02004KT 6SM BR OVC005 18/17 A3017 RMK AO2 SLP232 60000 T01780172 10183 20172 51009
KFCI 232256Z AUTO 02007KT 5SM BR OVC005 18/17 A3016 RMK AO2 RAE04 CIG 004V009 SLP230 P0000 T01780172
KFCI 232156Z AUTO 01005KT 3SM -RA BR OVC005 18/18 A3015 RMK AO2 RAB37 CIG 003V008 SLP227 P0000 T01830178
KFCI 232128Z AUTO 32006KT 2SM BR OVC005 18/18 A3015 RMK AO2
KFCI 232056Z AUTO 33006KT 3SM BR OVC005 18/18 A3014 RMK AO2 RAB13E52 SLP223 P0000 60000 T01830178 56007
KFCI 232047Z AUTO 32006KT 3SM -RA BR OVC005 18/18 A3014 RMK AO2 RAB13 P0000
KFCI 232007Z AUTO 32006KT 2SM BR OVC005 18/18 A3014 RMK AO2
KFCI 231956Z AUTO 32006KT 3SM BR OVC005 18/18 A3014 RMK AO2 SLP224 T01830178
KFCI 231856Z AUTO 34005KT 3SM BR OVC005 18/18 A3015 RMK AO2 RAB02E22 SLP225 P0000 T01830178
KFCI 231756Z AUTO 32006KT 4SM BR OVC005 17/17 A3016 RMK AO2 RAE56 SLP230 P0000 60001 T01720172 10172 20161 58004
KFCI 231726Z AUTO 31005KT 4SM -RA BR OVC005 17/17 A3017 RMK AO2 P0000
KFCI 231713Z AUTO 31006KT 2 1/2SM BR OVC005 17/17 A3017 RMK AO2 RAE04 P0000
KFCI 231656Z AUTO 32006KT 3SM -RA BR OVC005 17/17 A3017 RMK AO2 SLP231 P0000 T01720167
KFCI 231609Z AUTO 33005KT 2 1/2SM -RA BR OVC005 17/16 A3017 RMK AO2 CIG 003V007 P0000
KFCI 231556Z AUTO 32006KT 2SM -RA BR OVC003 17/16 A3018 RMK AO2 CIG 003V007 SLP235 P0000 T01670161
KFCI 231521Z AUTO 33005KT 1 3/4SM -RA BR OVC003 17/17 A3018 RMK AO2 P0000
KFCI 231356Z AUTO 34006KT 2SM -RA BR OVC003 17/16 A3017 RMK AO2 SLP233 P0000 T01670161 TSNO
KFCI 231156Z AUTO 01007KT 2SM -RA BR OVC005 17/16 A3014 RMK AO2 RAB36 SLP223 P0000 60048 70058 T01670161 10183 20167 53006
KFCI 231128Z AUTO 01006KT 2 1/2SM BR OVC005 17/16 A3014 RMK AO2
KFCI 231056Z AUTO 36006KT 8SM OVC005 17/16 A3014 RMK AO2 SLP221 T01670161
KFCI 230956Z AUTO 03004KT 9SM OVC005 17/16 A3013 RMK AO2 RAB05E44 SLP217 P0000 T01670161
KFCI 230856Z AUTO 03005KT 10SM OVC005 17/17 A3013 RMK AO2 RAE30 SLP216 P0006 60048 T01720167 58001
KFCI 230828Z AUTO 01005KT 10SM -RA BKN005 OVC014 17/17 A3013 RMK AO2 CIG 003V009 P0006
KFCI 230756Z AUTO 01006KT 8SM -RA OVC007 17/17 A3013 RMK AO2 CIG 003V010 SLP217 P0030 T01720167 TSNO
KFCI 230754Z AUTO 36006KT 8SM -RA BKN005 OVC011 17/17 A3013 RMK AO2 CIG 003V008 P0030
KFCI 230656Z AUTO 02006KT 10SM -RA BKN008 OVC015 18/17 A3013 RMK AO2 SLP217 P0012 T01780172
KFCI 230652Z AUTO 03005KT 10SM -RA BKN008 OVC015 18/17 A3013 RMK AO2 CIG 006V010 P0012
KFCI 230646Z AUTO 01006KT 10SM -RA SCT010 OVC015 18/17 A3013 RMK AO2 LTG DSNT E P0012
KFCI 230634Z AUTO 02004KT 10SM -RA FEW007 OVC013 18/17 A3013 RMK AO2 LTG DSNT E P0011
KFCI 230610Z AUTO 02004KT 10SM RA BKN013 OVC020 18/17 A3014 RMK AO2 P0003
KFCI 230556Z AUTO VRB05KT 10SM RA FEW013 OVC020 18/17 A3014 RMK AO2 SLP220 P0010 60010 T01830172 10233 20183 58006
KFCI 230456Z AUTO 03005KT 10SM -RA OVC016 19/17 A3016 RMK AO2 RAB20 SLP227 P0000 T01940172
KFCI 230356Z AUTO 03006KT 10SM OVC020 21/16 A3016 RMK AO2 SLP226 T02060161 402890200
KFCI 230256Z AUTO 04009G14KT 10SM BKN024 BKN033 21/16 A3016 RMK AO2 SLP226 T02110161 51015
KFCI 230156Z AUTO 05009KT 10SM BKN038 OVC065 22/17 A3015 RMK AO2 SLP224 T02220167
KFCI 230056Z AUTO 03008KT 10SM OVC060 22/18 A3014 RMK AO2 SLP221 T02220178
KFCI 222356Z AUTO 01007KT 10SM FEW040 OVC060 23/19 A3011 RMK AO2 SLP212 T02330189 10283 20233 51009
KFCI 222256Z AUTO 03006KT 10SM BKN045 OVC060 24/19 A3011 RMK AO2 SLP210 T02440189
KFCI 222156Z AUTO 03006KT 10SM BKN041 OVC060 26/21 A3010 RMK AO2 SLP205 T02560206
KFCI 222056Z AUTO 02006KT 10SM SCT030 BKN035 OVC055 27/21 A3009 RMK AO2 SLP202 T02670211 55004
KFCI 221956Z AUTO 03005KT 10SM BKN044 OVC050 27/21 A3008 RMK AO2 SLP200 T02720211